createdAt,value
2023-04-29T00:01:38.391Z,15.10
2023-04-29T00:03:43.657Z,16.00
2023-04-29T00:05:48.884Z,13.35
2023-04-29T00:07:53.974Z,13.73
2023-04-29T00:09:58.981Z,14.05
2023-04-29T00:12:04.011Z,11.77
2023-04-29T00:14:09.106Z,12.05
2023-04-29T00:16:14.362Z,12.38
2023-04-29T00:18:22.195Z,11.10
2023-04-29T00:20:27.346Z,12.25
2023-04-29T00:22:32.742Z,12.50
2023-04-29T00:24:37.799Z,12.40
2023-04-29T00:26:43.955Z,13.63
2023-04-29T00:28:49.253Z,14.02
2023-04-29T00:30:54.350Z,13.57
2023-04-29T00:32:59.401Z,12.38
2023-04-29T00:35:07.892Z,14.93
2023-04-29T00:37:12.938Z,13.75
2023-04-29T00:39:18.455Z,15.00
2023-04-29T00:41:24.176Z,13.70
2023-04-29T00:43:29.577Z,12.38
2023-04-29T00:45:34.640Z,14.32
2023-04-29T00:47:40.064Z,16.80
2023-04-29T00:49:45.455Z,15.50
2023-04-29T00:51:53.421Z,13.80
2023-04-29T00:53:58.647Z,18.33
2023-04-29T00:56:04.855Z,10.80
2023-04-29T00:58:10.148Z,12.77
2023-04-29T01:00:16.761Z,12.18
2023-04-29T01:02:22.583Z,13.80
2023-04-29T01:04:29.565Z,12.65
2023-04-29T01:06:47.689Z,12.85
2023-04-29T01:09:11.318Z,14.60
2023-04-29T01:11:23.451Z,12.98
2023-04-29T01:13:45.271Z,13.45
2023-04-29T01:15:59.036Z,14.45
2023-04-29T01:18:13.354Z,12.77
2023-04-29T01:20:19.011Z,13.32
2023-04-29T01:22:24.088Z,14.68
2023-04-29T01:24:31.873Z,13.18
2023-04-29T01:26:37.833Z,13.80
2023-04-29T01:28:57.222Z,12.70
2023-04-29T01:31:09.902Z,15.68
2023-04-29T01:33:26.162Z,16.35
2023-04-29T01:35:49.575Z,14.40
2023-04-29T01:38:04.322Z,15.35
2023-04-29T01:40:19.228Z,14.05
2023-04-29T01:42:42.902Z,14.00
2023-04-29T01:44:54.030Z,13.30
2023-04-29T01:47:04.042Z,13.00
2023-04-29T01:49:16.447Z,13.00
2023-04-29T01:51:21.982Z,13.75
2023-04-29T01:53:27.428Z,13.13
2023-04-29T01:55:35.109Z,14.75
2023-04-29T01:57:58.235Z,12.88
2023-04-29T02:00:22.545Z,13.82
2023-04-29T02:02:30.644Z,13.65
2023-04-29T02:04:46.304Z,13.63
2023-04-29T02:06:52.441Z,14.30
2023-04-29T02:08:57.487Z,13.70
2023-04-29T02:11:05.143Z,14.88
2023-04-29T02:15:21.609Z,13.73
2023-04-29T02:17:26.941Z,13.38
2023-04-29T02:19:32.043Z,13.88
2023-04-29T02:21:40.105Z,13.15
2023-04-29T02:23:45.201Z,13.07
2023-04-29T02:25:50.476Z,13.35
2023-04-29T02:27:58.157Z,12.85
2023-04-29T02:30:04.983Z,11.82
2023-04-29T02:32:10.224Z,11.02
2023-04-29T02:34:16.597Z,12.63
2023-04-29T02:36:21.685Z,11.68
2023-04-29T02:38:29.267Z,11.68
2023-04-29T02:40:34.284Z,11.30
2023-04-29T02:42:39.320Z,10.73
2023-04-29T02:44:46.945Z,12.50
2023-04-29T02:46:52.040Z,11.60
2023-04-29T02:48:57.253Z,11.20
2023-04-29T02:51:02.353Z,10.60
2023-04-29T02:53:10.474Z,12.07
2023-04-29T02:55:15.628Z,12.77
2023-04-29T02:57:21.210Z,11.23
2023-04-29T02:59:26.643Z,11.93
2023-04-29T03:01:34.529Z,10.95
2023-04-29T03:03:40.412Z,12.05
2023-04-29T03:05:46.041Z,11.65
2023-04-29T03:07:51.542Z,10.98
2023-04-29T03:09:57.049Z,12.13
2023-04-29T03:12:03.110Z,12.82
2023-04-29T03:14:08.787Z,11.27
2023-04-29T03:16:14.421Z,11.05
2023-04-29T03:18:22.234Z,12.50
2023-04-29T03:20:27.489Z,13.15
2023-04-29T03:22:32.688Z,12.52
2023-04-29T03:24:37.946Z,13.52
2023-04-29T03:26:43.349Z,14.05
2023-04-29T03:28:50.481Z,12.82
2023-04-29T03:30:56.955Z,13.98
2023-04-29T03:33:02.548Z,12.32
2023-04-29T03:35:15.570Z,12.95
2023-04-29T03:37:34.243Z,13.55
2023-04-29T03:39:52.985Z,13.45
2023-04-29T03:41:58.488Z,12.02
2023-04-29T03:44:03.843Z,13.38
2023-04-29T03:46:09.311Z,13.43
2023-04-29T03:48:14.912Z,12.10
2023-04-29T03:50:22.818Z,12.10
2023-04-29T03:52:28.801Z,12.57
2023-04-29T03:54:40.002Z,12.75
2023-04-29T03:56:45.276Z,11.93
2023-04-29T03:58:51.528Z,13.07
2023-04-29T04:00:58.483Z,11.43
2023-04-29T04:03:12.271Z,12.15
2023-04-29T04:05:19.685Z,12.35
2023-04-29T04:07:31.805Z,13.82
2023-04-29T04:10:14.925Z,12.68
2023-04-29T04:12:20.113Z,13.27
2023-04-29T04:14:25.591Z,11.85
2023-04-29T04:16:30.714Z,11.35
2023-04-29T04:18:35.913Z,13.65
2023-04-29T04:20:41.318Z,12.98
2023-04-29T04:22:50.956Z,14.63
2023-04-29T04:27:06.094Z,14.02
2023-04-29T04:29:15.592Z,14.68
2023-04-29T04:31:53.076Z,15.30
2023-04-29T04:34:00.009Z,14.00
2023-04-29T04:36:07.432Z,13.40
2023-04-29T04:38:15.633Z,14.30
2023-04-29T04:40:21.091Z,15.30
2023-04-29T04:42:46.115Z,12.50
2023-04-29T04:44:53.209Z,12.65
2023-04-29T04:47:09.600Z,12.23
2023-04-29T04:49:27.622Z,13.73
2023-04-29T04:51:33.197Z,13.55
2023-04-29T04:53:42.220Z,11.52
2023-04-29T04:55:55.998Z,12.63
2023-04-29T04:58:02.520Z,13.63
2023-04-29T05:00:09.803Z,12.75
2023-04-29T05:02:14.956Z,12.40
2023-04-29T05:04:20.179Z,11.32
2023-04-29T05:06:25.793Z,10.48
2023-04-29T05:08:30.898Z,11.40
2023-04-29T05:10:44.690Z,10.75
2023-04-29T05:12:50.649Z,10.80
2023-04-29T05:14:57.532Z,10.82
2023-04-29T05:17:06.740Z,11.50
2023-04-29T05:19:12.069Z,10.93
2023-04-29T05:21:18.918Z,11.27
2023-04-29T05:23:25.449Z,10.50
2023-04-29T05:25:30.540Z,11.68
2023-04-29T05:27:38.661Z,11.18
2023-04-29T05:29:47.473Z,10.85
2023-04-29T05:31:52.818Z,10.80
2023-04-29T05:33:58.138Z,10.82
2023-04-29T05:36:03.743Z,12.23
2023-04-29T05:38:11.057Z,12.45
2023-04-29T05:40:19.453Z,11.15
2023-04-29T05:42:25.358Z,11.73
2023-04-29T05:44:33.007Z,12.82
2023-04-29T05:46:38.452Z,12.20
2023-04-29T05:48:43.505Z,12.25
2023-04-29T05:50:50.378Z,12.45
2023-04-29T05:52:56.937Z,13.45
2023-04-29T05:55:03.404Z,11.40
2023-04-29T05:57:08.724Z,13.13
2023-04-29T05:59:13.744Z,13.02
2023-04-29T06:01:22.504Z,12.60
2023-04-29T06:03:28.071Z,13.32
2023-04-29T06:05:50.423Z,11.05
2023-04-29T06:08:11.081Z,11.32
2023-04-29T06:10:28.904Z,12.18
2023-04-29T06:12:34.667Z,11.60
2023-04-29T06:14:39.743Z,11.73
2023-04-29T06:16:47.533Z,11.15
2023-04-29T06:18:52.579Z,11.30
2023-04-29T06:20:57.589Z,11.27
2023-04-29T06:23:02.818Z,10.95
2023-04-29T06:25:08.823Z,11.07
2023-04-29T06:27:25.198Z,10.98
2023-04-29T06:29:30.822Z,10.57
2023-04-29T06:31:35.924Z,10.95
2023-04-29T06:33:45.630Z,10.80
2023-04-29T06:35:50.975Z,10.05
2023-04-29T06:38:11.520Z,9.27
2023-04-29T06:40:34.872Z,9.52
2023-04-29T06:42:46.810Z,9.65
2023-04-29T06:45:11.791Z,9.73
2023-04-29T06:47:20.289Z,10.18
2023-04-29T06:49:53.130Z,9.48
2023-04-29T06:52:02.289Z,10.30
2023-04-29T06:54:07.843Z,9.68
2023-04-29T06:58:19.026Z,8.65
2023-04-29T07:00:24.301Z,9.88
2023-04-29T07:02:33.228Z,9.38
2023-04-29T07:04:38.757Z,9.93
2023-04-29T07:06:47.372Z,9.73
2023-04-29T07:08:54.783Z,9.30
2023-04-29T07:11:01.926Z,8.70
2023-04-29T07:13:07.585Z,8.38
2023-04-29T07:15:13.625Z,9.23
2023-04-29T07:17:18.989Z,8.75
2023-04-29T07:19:25.462Z,9.07
2023-04-29T07:21:31.434Z,7.72
2023-04-29T07:23:39.154Z,8.15
2023-04-29T07:25:44.736Z,8.80
2023-04-29T07:27:49.774Z,7.95
2023-04-29T07:29:54.829Z,6.85
2023-04-29T07:32:00.100Z,7.03
2023-04-29T07:34:06.201Z,7.72
2023-04-29T07:36:11.624Z,7.93
2023-04-29T07:38:16.637Z,7.75
2023-04-29T07:40:24.827Z,6.78
2023-04-29T07:42:34.661Z,8.43
2023-04-29T07:44:40.108Z,7.47
2023-04-29T07:46:45.291Z,7.47
2023-04-29T07:48:50.802Z,7.32
2023-04-29T07:50:55.898Z,7.22
2023-04-29T07:53:02.281Z,6.80
2023-04-29T07:55:08.683Z,6.43
2023-04-29T07:57:16.517Z,7.15
2023-04-29T07:59:21.548Z,6.55
2023-04-29T08:01:27.249Z,6.63
2023-04-29T08:03:32.868Z,5.95
2023-04-29T08:05:39.434Z,6.47
2023-04-29T08:07:44.572Z,6.68
2023-04-29T08:09:49.608Z,6.03
2023-04-29T08:11:55.167Z,6.30
2023-04-29T08:14:02.877Z,6.72
2023-04-29T08:16:09.721Z,6.60
2023-04-29T08:18:14.856Z,5.88
2023-04-29T08:20:20.051Z,5.90
2023-04-29T08:22:25.581Z,5.95
2023-04-29T08:24:31.193Z,6.63
2023-04-29T08:26:36.846Z,5.82
2023-04-29T08:28:41.996Z,6.40
2023-04-29T08:30:49.937Z,7.65
2023-04-29T08:32:55.022Z,8.75
2023-04-29T08:35:00.107Z,5.53
2023-04-29T08:37:06.062Z,5.55
2023-04-29T08:39:11.102Z,5.20
2023-04-29T08:41:17.001Z,4.78
2023-04-29T08:43:23.213Z,4.50
2023-04-29T08:45:31.931Z,4.40
2023-04-29T08:47:40.852Z,4.90
2023-04-29T08:49:46.073Z,5.10
2023-04-29T08:51:53.438Z,5.25
2023-04-29T08:53:59.755Z,4.95
2023-04-29T08:56:22.208Z,5.10
2023-04-29T08:58:31.038Z,4.93
2023-04-29T09:00:37.368Z,4.30
2023-04-29T09:02:53.154Z,4.40
2023-04-29T09:05:07.690Z,5.10
2023-04-29T09:07:15.273Z,4.80
2023-04-29T09:09:21.308Z,4.38
2023-04-29T09:11:26.553Z,4.20
2023-04-29T09:13:34.090Z,4.68
2023-04-29T09:15:41.558Z,4.45
2023-04-29T09:17:51.829Z,4.45
2023-04-29T09:19:57.277Z,4.78
2023-04-29T09:22:02.734Z,4.07
2023-04-29T09:24:08.666Z,7.63
2023-04-29T09:26:13.921Z,5.10
2023-04-29T09:28:19.562Z,4.78
2023-04-29T09:30:27.034Z,4.55
2023-04-29T09:32:32.092Z,5.40
2023-04-29T09:34:41.476Z,4.80
2023-04-29T09:36:48.650Z,5.18
2023-04-29T09:38:58.315Z,4.85
2023-04-29T09:41:12.235Z,4.95
2023-04-29T09:43:19.159Z,4.90
2023-04-29T09:45:37.764Z,5.85
2023-04-29T09:47:42.966Z,5.03
2023-04-29T09:49:50.589Z,5.00
2023-04-29T09:51:57.563Z,5.18
2023-04-29T09:54:04.437Z,4.90
2023-04-29T09:56:10.113Z,5.75
2023-04-29T09:58:37.303Z,5.35
2023-04-29T10:00:43.343Z,5.35
2023-04-29T10:02:51.230Z,5.85
2023-04-29T10:05:00.989Z,6.03
2023-04-29T10:07:06.789Z,5.90
2023-04-29T10:09:16.225Z,5.28
2023-04-29T10:11:22.053Z,4.90
2023-04-29T10:13:28.517Z,5.40
2023-04-29T10:15:43.320Z,4.55
2023-04-29T10:17:52.362Z,5.50
2023-04-29T10:20:06.435Z,5.38
2023-04-29T10:22:15.880Z,4.57
2023-04-29T10:24:22.104Z,3.92
2023-04-29T10:26:32.433Z,3.50
2023-04-29T10:28:40.358Z,3.05
2023-04-29T10:30:48.274Z,2.88
2023-04-29T10:32:54.882Z,2.97
2023-04-29T10:35:03.985Z,2.65
2023-04-29T10:37:09.823Z,2.83
2023-04-29T10:39:26.913Z,2.55
2023-04-29T10:41:48.021Z,2.63
2023-04-29T10:43:53.554Z,2.88
2023-04-29T10:46:30.926Z,2.90
2023-04-29T10:48:35.972Z,2.85
2023-04-29T10:51:05.712Z,2.75
2023-04-29T10:53:11.217Z,3.13
2023-04-29T10:55:16.205Z,3.25
2023-04-29T10:57:25.107Z,3.20
2023-04-29T10:59:48.347Z,3.10
2023-04-29T11:01:55.808Z,3.05
2023-04-29T11:04:05.512Z,3.33
2023-04-29T11:06:15.030Z,3.15
2023-04-29T11:08:26.708Z,2.92
2023-04-29T11:10:39.792Z,3.72
2023-04-29T11:12:45.484Z,2.72
2023-04-29T11:14:55.807Z,2.97
2023-04-29T11:17:04.674Z,2.85
2023-04-29T11:19:12.509Z,2.90
2023-04-29T11:21:20.405Z,2.25
2023-04-29T11:23:28.590Z,2.70
2023-04-29T11:25:33.880Z,2.70
2023-04-29T11:27:42.829Z,2.33
2023-04-29T11:29:49.430Z,2.65
2023-04-29T11:32:02.904Z,2.85
2023-04-29T11:36:15.375Z,2.72
2023-04-29T11:38:27.562Z,2.95
2023-04-29T11:40:32.578Z,2.90
2023-04-29T11:42:39.099Z,2.95
2023-04-29T11:44:44.104Z,2.88
2023-04-29T11:46:49.828Z,2.72
2023-04-29T11:48:55.393Z,3.20
2023-04-29T11:51:02.716Z,3.30
2023-04-29T11:53:07.968Z,2.72
2023-04-29T11:55:16.334Z,3.60
2023-04-29T11:57:21.435Z,3.05
2023-04-29T11:59:27.193Z,3.40
2023-04-29T12:01:32.322Z,3.00
2023-04-29T12:03:37.876Z,3.50
2023-04-29T12:05:43.162Z,3.70
2023-04-29T12:07:48.231Z,3.80
2023-04-29T12:09:53.860Z,3.75
2023-04-29T12:12:01.779Z,3.67
2023-04-29T12:14:08.351Z,3.60
2023-04-29T12:16:14.106Z,3.55
2023-04-29T12:18:23.659Z,3.40
2023-04-29T12:20:29.535Z,3.42
2023-04-29T12:22:35.261Z,3.35
2023-04-29T12:24:42.136Z,3.05
2023-04-29T12:26:49.559Z,3.40
2023-04-29T12:29:01.943Z,3.35
2023-04-29T12:31:07.155Z,2.30
2023-04-29T12:33:12.628Z,3.58
2023-04-29T12:35:19.423Z,3.08
2023-04-29T12:37:26.156Z,2.80
2023-04-29T12:39:33.879Z,2.55
2023-04-29T12:41:44.348Z,2.65
2023-04-29T12:43:49.425Z,3.10
2023-04-29T12:45:58.961Z,2.50
2023-04-29T12:48:08.988Z,2.50
2023-04-29T12:50:20.496Z,2.40
2023-04-29T12:52:25.532Z,2.85
2023-04-29T12:54:30.843Z,2.70
2023-04-29T12:56:36.228Z,2.38
2023-04-29T12:58:42.092Z,2.53
2023-04-29T13:00:47.227Z,2.67
2023-04-29T13:02:55.324Z,2.55
2023-04-29T13:05:01.322Z,3.08
2023-04-29T13:07:07.035Z,2.90
2023-04-29T13:09:18.639Z,2.55
2023-04-29T13:11:24.692Z,3.25
2023-04-29T13:13:29.904Z,3.30
2023-04-29T13:15:36.202Z,3.80
2023-04-29T13:17:41.762Z,4.07
2023-04-29T13:19:51.823Z,4.20
2023-04-29T13:21:57.184Z,4.57
2023-04-29T13:24:02.198Z,7.10
2023-04-29T13:26:09.043Z,8.25
2023-04-29T13:28:14.685Z,7.72
2023-04-29T13:30:20.201Z,8.48
2023-04-29T13:32:25.876Z,9.00
2023-04-29T13:34:30.937Z,8.20
2023-04-29T13:36:38.815Z,9.73
2023-04-29T13:38:44.910Z,9.13
2023-04-29T13:40:51.638Z,9.30
2023-04-29T13:43:05.033Z,9.45
2023-04-29T13:45:15.542Z,9.73
2023-04-29T13:47:26.243Z,9.85
2023-04-29T13:49:55.990Z,10.02
2023-04-29T13:52:30.580Z,10.52
2023-04-29T13:59:30.669Z,9.63
2023-04-29T14:01:26.075Z,8.75
2023-04-29T14:03:35.590Z,8.85
2023-04-29T14:05:42.003Z,9.10
2023-04-29T14:07:49.689Z,8.65
2023-04-29T14:09:54.725Z,8.45
2023-04-29T14:11:59.977Z,8.05
2023-04-29T14:14:05.026Z,8.35
2023-04-29T14:16:11.797Z,8.95
2023-04-29T14:18:16.860Z,8.98
2023-04-29T14:20:22.142Z,9.77
2023-04-29T14:22:27.558Z,9.43
2023-04-29T14:24:35.166Z,9.18
2023-04-29T14:26:40.239Z,8.98
2023-04-29T14:28:45.339Z,9.73
2023-04-29T14:30:50.432Z,9.05
2023-04-29T14:32:55.454Z,9.77
2023-04-29T14:35:00.965Z,10.27
2023-04-29T14:37:06.024Z,10.07
2023-04-29T14:39:11.225Z,9.43
2023-04-29T14:41:18.877Z,9.70
2023-04-29T14:43:24.235Z,10.30
2023-04-29T14:45:29.273Z,10.48
2023-04-29T14:47:34.666Z,9.65
2023-04-29T14:49:39.731Z,8.75
2023-04-29T14:51:44.771Z,9.38
2023-04-29T14:53:49.963Z,9.02
2023-04-29T14:55:55.561Z,9.27
2023-04-29T14:58:05.351Z,9.38
2023-04-29T15:00:12.727Z,9.15
2023-04-29T15:02:18.089Z,9.18
2023-04-29T15:04:23.133Z,8.40
2023-04-29T15:06:28.745Z,9.27
2023-04-29T15:08:34.458Z,9.52
2023-04-29T15:10:39.549Z,9.27
2023-04-29T15:12:45.109Z,8.95
2023-04-29T15:14:53.698Z,8.70
2023-04-29T15:16:58.932Z,8.95
2023-04-29T15:19:04.365Z,8.68
2023-04-29T15:21:09.669Z,8.02
2023-04-29T15:23:15.258Z,7.63
2023-04-29T15:25:21.197Z,7.40
2023-04-29T15:27:26.879Z,7.32
2023-04-29T15:29:32.806Z,7.25
2023-04-29T15:31:41.285Z,8.02
2023-04-29T15:33:46.677Z,7.68
2023-04-29T15:35:51.746Z,7.57
2023-04-29T15:37:57.617Z,7.78
2023-04-29T15:40:04.441Z,8.57
2023-04-29T15:42:09.638Z,8.95
2023-04-29T15:44:15.095Z,10.15
2023-04-29T15:46:20.306Z,10.90
2023-04-29T15:48:28.399Z,10.65
2023-04-29T15:50:33.420Z,10.90
2023-04-29T15:52:38.862Z,10.57
2023-04-29T15:54:43.894Z,11.15
2023-04-29T15:56:49.100Z,11.57
2023-04-29T15:58:54.897Z,10.73
2023-04-29T16:01:00.336Z,10.10
2023-04-29T16:03:06.133Z,9.85
2023-04-29T16:05:14.069Z,11.27
2023-04-29T16:07:20.608Z,10.85
2023-04-29T16:09:26.119Z,9.65
2023-04-29T16:11:31.129Z,11.80
2023-04-29T16:13:36.891Z,10.63
2023-04-29T16:15:41.967Z,11.25
2023-04-29T16:17:47.453Z,11.13
2023-04-29T16:19:52.708Z,11.20
2023-04-29T16:22:00.397Z,11.68
2023-04-29T16:24:06.250Z,10.35
2023-04-29T16:26:11.729Z,11.77
2023-04-29T16:28:17.775Z,10.80
2023-04-29T16:30:22.816Z,10.55
2023-04-29T16:32:28.932Z,10.50
2023-04-29T16:34:34.017Z,9.20
2023-04-29T16:36:39.519Z,9.07
2023-04-29T16:38:47.603Z,8.57
2023-04-29T16:40:52.705Z,8.48
2023-04-29T16:42:57.984Z,8.32
2023-04-29T16:45:04.228Z,9.20
2023-04-29T16:47:09.438Z,8.10
2023-04-29T16:49:14.971Z,8.70
2023-04-29T16:51:20.388Z,8.80
2023-04-29T16:53:25.520Z,8.25
2023-04-29T16:55:33.539Z,9.25
2023-04-29T16:57:38.598Z,10.05
2023-04-29T16:59:43.627Z,11.02
2023-04-29T17:01:48.800Z,11.80
2023-04-29T17:03:54.217Z,12.30
2023-04-29T17:05:59.269Z,11.73
2023-04-29T17:08:05.985Z,12.10
2023-04-29T17:10:12.458Z,11.82
2023-04-29T17:12:20.086Z,11.27
2023-04-29T17:14:25.496Z,12.13
2023-04-29T17:16:30.775Z,12.10
2023-04-29T17:18:36.111Z,11.85
2023-04-29T17:20:42.247Z,10.88
2023-04-29T17:22:47.745Z,11.32
2023-04-29T17:24:53.416Z,12.35
2023-04-29T17:26:59.659Z,11.88
2023-04-29T17:29:07.571Z,11.15
2023-04-29T17:31:12.639Z,9.55
2023-04-29T17:33:17.856Z,10.43
2023-04-29T17:35:23.187Z,9.63
2023-04-29T17:37:30.415Z,9.13
2023-04-29T17:39:36.455Z,9.90
2023-04-29T17:41:41.476Z,9.38
2023-04-29T17:43:47.303Z,9.85
2023-04-29T17:45:55.129Z,9.88
2023-04-29T17:48:00.299Z,9.95
2023-04-29T17:50:05.682Z,10.93
2023-04-29T17:52:11.120Z,11.30
2023-04-29T17:54:16.507Z,10.23
2023-04-29T17:56:23.433Z,9.77
2023-04-29T17:58:30.043Z,9.98
2023-04-29T18:00:35.181Z,10.18
2023-04-29T18:02:42.813Z,10.27
2023-04-29T18:04:48.389Z,10.57
2023-04-29T18:06:53.507Z,9.88
2023-04-29T18:08:58.565Z,9.90
2023-04-29T18:11:03.588Z,9.93
2023-04-29T18:13:08.628Z,10.70
2023-04-29T18:15:16.684Z,9.63
2023-04-29T18:17:21.876Z,11.40
2023-04-29T18:19:29.634Z,10.30
2023-04-29T18:21:34.738Z,11.50
2023-04-29T18:23:40.850Z,11.10
2023-04-29T18:25:46.301Z,11.95
2023-04-29T18:27:52.736Z,12.52
2023-04-29T18:30:02.218Z,12.75
2023-04-29T18:32:08.456Z,13.13
2023-04-29T18:34:13.536Z,11.95
2023-04-29T18:36:21.453Z,12.40
2023-04-29T18:38:27.824Z,13.63
2023-04-29T18:40:32.876Z,12.35
2023-04-29T18:42:38.036Z,12.80
2023-04-29T18:44:43.036Z,13.55
2023-04-29T18:46:48.056Z,12.52
2023-04-29T18:48:53.062Z,13.15
2023-04-29T18:51:03.989Z,10.93
2023-04-29T18:53:11.918Z,12.20
2023-04-29T18:55:16.935Z,12.25
2023-04-29T18:57:22.076Z,11.50
2023-04-29T18:59:27.105Z,13.10
2023-04-29T19:01:32.322Z,12.93
2023-04-29T19:03:37.352Z,12.13
2023-04-29T19:05:42.937Z,11.27
2023-04-29T19:07:48.238Z,12.30
2023-04-29T19:09:56.176Z,11.00
2023-04-29T19:12:03.777Z,12.10
2023-04-29T19:14:08.818Z,11.35
2023-04-29T19:16:14.352Z,11.95
2023-04-29T19:18:21.482Z,11.60
2023-04-29T19:20:27.177Z,10.57
2023-04-29T19:22:32.406Z,11.38
2023-04-29T19:24:39.023Z,10.57
2023-04-29T19:26:47.004Z,10.85
2023-04-29T19:28:52.708Z,10.85
2023-04-29T19:30:58.460Z,10.32
2023-04-29T19:33:04.442Z,11.23
2023-04-29T19:35:11.996Z,9.68
2023-04-29T19:37:18.248Z,10.95
2023-04-29T19:39:23.407Z,11.43
2023-04-29T19:41:28.933Z,12.45
2023-04-29T19:43:36.519Z,10.90
2023-04-29T19:45:41.666Z,11.98
2023-04-29T19:47:48.666Z,11.18
2023-04-29T19:49:54.618Z,10.90
2023-04-29T19:52:00.126Z,10.30
2023-04-29T19:54:05.142Z,10.90
2023-04-29T19:56:10.238Z,11.30
2023-04-29T19:58:15.397Z,11.88
2023-04-29T20:00:23.432Z,11.00
2023-04-29T20:02:28.869Z,12.23
2023-04-29T20:04:34.964Z,11.10
2023-04-29T20:06:40.364Z,12.02
2023-04-29T20:08:45.692Z,11.27
2023-04-29T20:10:51.094Z,12.02
2023-04-29T20:12:56.436Z,12.23
2023-04-29T20:15:01.771Z,11.77
2023-04-29T20:17:09.682Z,12.63
2023-04-29T20:19:14.743Z,10.90
2023-04-29T20:21:20.033Z,12.80
2023-04-29T20:23:25.092Z,12.13
2023-04-29T20:25:30.553Z,11.90
2023-04-29T20:27:35.873Z,12.25
2023-04-29T20:29:41.491Z,12.57
2023-04-29T20:31:46.903Z,12.88
2023-04-29T20:33:54.486Z,12.60
2023-04-29T20:36:05.645Z,13.15
2023-04-29T20:38:11.012Z,12.45
2023-04-29T20:40:16.831Z,12.65
2023-04-29T20:42:22.609Z,12.15
2023-04-29T20:44:27.941Z,10.48
2023-04-29T20:46:33.067Z,12.02
2023-04-29T20:48:38.682Z,11.68
2023-04-29T20:50:46.604Z,12.15
2023-04-29T20:52:52.862Z,12.93
2023-04-29T20:54:58.883Z,11.57
2023-04-29T20:57:05.817Z,12.60
2023-04-29T20:59:11.183Z,14.13
2023-04-29T21:01:16.516Z,13.93
2023-04-29T21:03:22.749Z,13.73
2023-04-29T21:05:27.856Z,11.30
2023-04-29T21:07:35.737Z,12.40
2023-04-29T21:09:41.016Z,11.95
2023-04-29T21:11:46.231Z,12.60
2023-04-29T21:13:52.493Z,13.52
2023-04-29T21:15:57.572Z,13.40
2023-04-29T21:18:02.870Z,10.68
2023-04-29T21:20:10.834Z,11.80
2023-04-29T21:22:15.841Z,13.82
2023-04-29T21:24:23.655Z,12.80
2023-04-29T21:26:29.123Z,12.98
2023-04-29T21:28:34.479Z,11.85
2023-04-29T21:30:39.553Z,11.13
2023-04-29T21:32:44.899Z,11.52
2023-04-29T21:34:50.041Z,11.77
2023-04-29T21:36:55.076Z,11.93
2023-04-29T21:39:00.148Z,13.18
2023-04-29T21:41:10.098Z,13.52
2023-04-29T21:43:15.638Z,13.38
2023-04-29T21:45:20.931Z,14.32
2023-04-29T21:47:26.351Z,14.98
2023-04-29T21:49:31.967Z,14.50
2023-04-29T21:51:37.812Z,15.10
2023-04-29T21:53:42.918Z,15.13
2023-04-29T21:55:48.048Z,14.00
2023-04-29T21:57:55.887Z,16.33
2023-04-29T22:00:00.949Z,15.75
2023-04-29T22:02:14.764Z,16.38
2023-04-29T22:04:19.902Z,15.52
2023-04-29T22:06:25.227Z,16.25
2023-04-29T22:08:30.658Z,15.27
2023-04-29T22:10:35.774Z,17.48
2023-04-29T22:12:40.801Z,15.80
2023-04-29T22:14:48.700Z,15.88
2023-04-29T22:16:53.744Z,16.25
2023-04-29T22:18:58.852Z,16.58
2023-04-29T22:21:04.073Z,16.23
2023-04-29T22:23:09.075Z,14.30
2023-04-29T22:25:14.067Z,16.05
2023-04-29T22:27:19.217Z,15.05
2023-04-29T22:29:24.969Z,14.70
2023-04-29T22:31:32.599Z,15.05
2023-04-29T22:33:38.898Z,14.00
2023-04-29T22:35:43.928Z,16.25
2023-04-29T22:37:49.179Z,16.02
2023-04-29T22:39:54.532Z,15.75
2023-04-29T22:41:59.864Z,15.88
2023-04-29T22:44:05.288Z,16.58
2023-04-29T22:46:10.383Z,18.65
2023-04-29T22:48:18.520Z,17.20
2023-04-29T22:50:23.792Z,14.88
2023-04-29T22:52:29.084Z,16.85
2023-04-29T22:54:34.247Z,18.58
2023-04-29T22:56:39.281Z,18.30
2023-04-29T22:58:44.554Z,19.38
2023-04-29T23:00:53.054Z,17.63
2023-04-29T23:02:58.080Z,17.88
2023-04-29T23:05:06.911Z,21.40
2023-04-29T23:07:11.995Z,19.33
2023-04-29T23:09:17.569Z,18.20
2023-04-29T23:11:22.857Z,17.67
2023-04-29T23:13:27.884Z,18.88
2023-04-29T23:15:33.628Z,17.15
2023-04-29T23:17:39.959Z,18.17
2023-04-29T23:19:46.448Z,19.75
2023-04-29T23:21:54.065Z,18.38
2023-04-29T23:23:59.070Z,21.33
2023-04-29T23:26:04.203Z,19.77
2023-04-29T23:28:09.448Z,19.50
2023-04-29T23:30:15.185Z,17.80
2023-04-29T23:32:20.836Z,19.13
2023-04-29T23:34:26.566Z,21.77
2023-04-29T23:36:31.572Z,22.83
2023-04-29T23:38:39.149Z,20.75
2023-04-29T23:40:44.400Z,20.52
2023-04-29T23:42:49.423Z,18.73
2023-04-29T23:44:54.694Z,19.20
2023-04-29T23:46:59.709Z,19.20
2023-04-29T23:49:04.717Z,16.50
2023-04-29T23:51:09.995Z,17.85
2023-04-29T23:53:15.933Z,19.05
2023-04-29T23:55:23.922Z,21.42
2023-04-29T23:57:28.952Z,19.90
2023-04-29T23:59:33.952Z,20.92
